sensor_id;sensor_type;location;lat;lon;timestamp;temperature;humidity
33328;DHT22;19692;52.998;9.116;2023-04-03T00:00:42;1.90;99.90
33328;DHT22;19692;52.998;9.116;2023-04-03T00:03:08;1.90;99.90
33328;DHT22;19692;52.998;9.116;2023-04-03T00:05:34;1.80;99.90
33328;DHT22;19692;52.998;9.116;2023-04-03T00:07:59;1.80;99.90
33328;DHT22;19692;52.998;9.116;2023-04-03T00:10:27;1.80;99.90
33328;DHT22;19692;52.998;9.116;2023-04-03T00:12:54;1.80;99.90
33328;DHT22;19692;52.998;9.116;2023-04-03T00:15:19;1.70;99.90
33328;DHT22;19692;52.998;9.116;2023-04-03T00:17:45;1.70;99.90
33328;DHT22;19692;52.998;9.116;2023-04-03T00:20:11;1.70;99.90
33328;DHT22;19692;52.998;9.116;2023-04-03T00:22:37;1.70;99.90
33328;DHT22;19692;52.998;9.116;2023-04-03T00:25:03;1.70;99.90
33328;DHT22;19692;52.998;9.116;2023-04-03T00:27:29;1.70;99.90
33328;DHT22;19692;52.998;9.116;2023-04-03T00:29:55;1.70;99.90
33328;DHT22;19692;52.998;9.116;2023-04-03T00:32:21;1.70;99.90
33328;DHT22;19692;52.998;9.116;2023-04-03T00:34:46;1.60;99.90
33328;DHT22;19692;52.998;9.116;2023-04-03T00:37:12;1.60;99.90
33328;DHT22;19692;52.998;9.116;2023-04-03T00:39:38;1.70;99.90
33328;DHT22;19692;52.998;9.116;2023-04-03T00:42:04;1.60;99.90
33328;DHT22;19692;52.998;9.116;2023-04-03T00:46:59;1.60;99.90
33328;DHT22;19692;52.998;9.116;2023-04-03T00:49:26;1.60;99.90
33328;DHT22;19692;52.998;9.116;2023-04-03T00:51:52;1.50;99.90
33328;DHT22;19692;52.998;9.116;2023-04-03T00:54:19;1.50;99.90
33328;DHT22;19692;52.998;9.116;2023-04-03T00:56:45;1.50;99.90
33328;DHT22;19692;52.998;9.116;2023-04-03T00:59:18;1.40;99.90
33328;DHT22;19692;52.998;9.116;2023-04-03T01:01:48;1.40;99.90
33328;DHT22;19692;52.998;9.116;2023-04-03T01:04:47;1.40;99.90
33328;DHT22;19692;52.998;9.116;2023-04-03T01:09:41;1.30;99.90
33328;DHT22;19692;52.998;9.116;2023-04-03T01:14:49;1.30;99.90
33328;DHT22;19692;52.998;9.116;2023-04-03T01:17:36;1.30;99.90
33328;DHT22;19692;52.998;9.116;2023-04-03T01:25:46;1.10;99.90
33328;DHT22;19692;52.998;9.116;2023-04-03T01:28:18;1.10;99.90
33328;DHT22;19692;52.998;9.116;2023-04-03T01:33:30;1.00;99.90
33328;DHT22;19692;52.998;9.116;2023-04-03T01:35:56;1.00;99.90
33328;DHT22;19692;52.998;9.116;2023-04-03T01:38:22;1.00;99.90
33328;DHT22;19692;52.998;9.116;2023-04-03T01:40:47;1.00;99.90
33328;DHT22;19692;52.998;9.116;2023-04-03T01:43:13;0.90;99.90
33328;DHT22;19692;52.998;9.116;2023-04-03T01:45:39;0.90;99.90
33328;DHT22;19692;52.998;9.116;2023-04-03T01:48:05;0.90;99.90
33328;DHT22;19692;52.998;9.116;2023-04-03T01:50:30;0.80;99.90
33328;DHT22;19692;52.998;9.116;2023-04-03T01:52:56;0.70;99.90
33328;DHT22;19692;52.998;9.116;2023-04-03T01:55:22;0.80;99.90
33328;DHT22;19692;52.998;9.116;2023-04-03T01:57:48;0.80;99.90
33328;DHT22;19692;52.998;9.116;2023-04-03T02:00:14;0.70;99.90
33328;DHT22;19692;52.998;9.116;2023-04-03T02:02:40;0.70;99.90
33328;DHT22;19692;52.998;9.116;2023-04-03T02:05:06;0.70;99.90
33328;DHT22;19692;52.998;9.116;2023-04-03T02:07:32;0.70;99.90
33328;DHT22;19692;52.998;9.116;2023-04-03T02:09:58;0.80;99.90
33328;DHT22;19692;52.998;9.116;2023-04-03T02:12:23;0.70;99.90
33328;DHT22;19692;52.998;9.116;2023-04-03T02:14:49;0.70;99.90
33328;DHT22;19692;52.998;9.116;2023-04-03T02:17:15;0.70;99.90
33328;DHT22;19692;52.998;9.116;2023-04-03T02:19:41;0.70;99.90
33328;DHT22;19692;52.998;9.116;2023-04-03T02:22:07;0.70;99.90
33328;DHT22;19692;52.998;9.116;2023-04-03T02:24:32;0.60;99.90
33328;DHT22;19692;52.998;9.116;2023-04-03T02:26:58;0.60;99.90
33328;DHT22;19692;52.998;9.116;2023-04-03T02:29:24;0.60;99.90
33328;DHT22;19692;52.998;9.116;2023-04-03T02:31:50;0.60;99.90
33328;DHT22;19692;52.998;9.116;2023-04-03T02:34:17;0.60;99.90
33328;DHT22;19692;52.998;9.116;2023-04-03T02:36:43;0.50;99.90
33328;DHT22;19692;52.998;9.116;2023-04-03T02:39:09;0.60;99.90
33328;DHT22;19692;52.998;9.116;2023-04-03T02:41:35;0.60;99.90
33328;DHT22;19692;52.998;9.116;2023-04-03T02:44:02;0.60;99.90
33328;DHT22;19692;52.998;9.116;2023-04-03T02:46:29;0.60;99.90
33328;DHT22;19692;52.998;9.116;2023-04-03T02:48:54;0.50;99.90
33328;DHT22;19692;52.998;9.116;2023-04-03T02:51:20;0.50;99.90
33328;DHT22;19692;52.998;9.116;2023-04-03T02:53:46;0.50;99.90
33328;DHT22;19692;52.998;9.116;2023-04-03T02:56:12;0.40;99.90
33328;DHT22;19692;52.998;9.116;2023-04-03T02:58:38;0.40;99.90
33328;DHT22;19692;52.998;9.116;2023-04-03T03:01:04;0.40;99.90
33328;DHT22;19692;52.998;9.116;2023-04-03T03:03:30;0.40;99.90
33328;DHT22;19692;52.998;9.116;2023-04-03T03:08:34;0.50;99.90
33328;DHT22;19692;52.998;9.116;2023-04-03T03:11:00;0.40;99.90
33328;DHT22;19692;52.998;9.116;2023-04-03T03:13:26;0.30;99.90
33328;DHT22;19692;52.998;9.116;2023-04-03T03:15:52;0.30;99.90
33328;DHT22;19692;52.998;9.116;2023-04-03T03:18:18;0.30;99.90
33328;DHT22;19692;52.998;9.116;2023-04-03T03:20:43;0.40;99.90
33328;DHT22;19692;52.998;9.116;2023-04-03T03:23:09;0.30;99.90
33328;DHT22;19692;52.998;9.116;2023-04-03T03:25:39;0.40;99.90
33328;DHT22;19692;52.998;9.116;2023-04-03T03:28:05;0.30;99.90
33328;DHT22;19692;52.998;9.116;2023-04-03T03:30:31;0.30;99.90
33328;DHT22;19692;52.998;9.116;2023-04-03T03:32:57;0.30;99.90
33328;DHT22;19692;52.998;9.116;2023-04-03T03:35:23;0.20;99.90
33328;DHT22;19692;52.998;9.116;2023-04-03T03:37:48;0.20;99.90
33328;DHT22;19692;52.998;9.116;2023-04-03T03:40:14;0.20;99.90
33328;DHT22;19692;52.998;9.116;2023-04-03T03:42:40;0.20;99.90
33328;DHT22;19692;52.998;9.116;2023-04-03T03:45:07;0.30;99.90
33328;DHT22;19692;52.998;9.116;2023-04-03T03:47:33;0.30;99.90
33328;DHT22;19692;52.998;9.116;2023-04-03T03:49:58;0.30;99.90
33328;DHT22;19692;52.998;9.116;2023-04-03T03:52:24;0.30;99.90
33328;DHT22;19692;52.998;9.116;2023-04-03T03:54:51;0.30;99.90
33328;DHT22;19692;52.998;9.116;2023-04-03T03:57:17;0.30;99.90
33328;DHT22;19692;52.998;9.116;2023-04-03T03:59:43;0.10;99.90
33328;DHT22;19692;52.998;9.116;2023-04-03T04:02:10;0.20;99.90
33328;DHT22;19692;52.998;9.116;2023-04-03T04:04:36;0.20;99.90
33328;DHT22;19692;52.998;9.116;2023-04-03T04:07:03;0.10;99.90
33328;DHT22;19692;52.998;9.116;2023-04-03T04:09:29;0.20;99.90
33328;DHT22;19692;52.998;9.116;2023-04-03T04:11:54;0.20;99.90
33328;DHT22;19692;52.998;9.116;2023-04-03T04:14:20;0.10;99.90
33328;DHT22;19692;52.998;9.116;2023-04-03T04:16:49;0.10;99.90
33328;DHT22;19692;52.998;9.116;2023-04-03T04:19:15;0.10;99.90
33328;DHT22;19692;52.998;9.116;2023-04-03T04:21:40;0.10;99.90
33328;DHT22;19692;52.998;9.116;2023-04-03T04:24:07;0.20;99.90
33328;DHT22;19692;52.998;9.116;2023-04-03T04:26:33;0.10;99.90
33328;DHT22;19692;52.998;9.116;2023-04-03T04:29:00;0.20;99.90
33328;DHT22;19692;52.998;9.116;2023-04-03T04:31:26;0.20;99.90
33328;DHT22;19692;52.998;9.116;2023-04-03T04:33:53;0.10;99.90
33328;DHT22;19692;52.998;9.116;2023-04-03T04:36:19;0.10;99.90
33328;DHT22;19692;52.998;9.116;2023-04-03T04:38:45;0.10;99.90
33328;DHT22;19692;52.998;9.116;2023-04-03T04:41:11;0.00;99.90
33328;DHT22;19692;52.998;9.116;2023-04-03T04:43:36;-0.10;99.90
33328;DHT22;19692;52.998;9.116;2023-04-03T04:46:07;0.00;99.90
33328;DHT22;19692;52.998;9.116;2023-04-03T04:48:35;0.00;99.90
33328;DHT22;19692;52.998;9.116;2023-04-03T04:51:01;-0.10;99.90
33328;DHT22;19692;52.998;9.116;2023-04-03T04:53:27;-0.10;99.90
33328;DHT22;19692;52.998;9.116;2023-04-03T04:55:53;-0.10;99.90
33328;DHT22;19692;52.998;9.116;2023-04-03T04:58:20;-0.10;99.90
33328;DHT22;19692;52.998;9.116;2023-04-03T05:00:46;-0.10;99.90
33328;DHT22;19692;52.998;9.116;2023-04-03T05:03:12;0.00;99.90
33328;DHT22;19692;52.998;9.116;2023-04-03T05:05:38;-0.10;99.90
33328;DHT22;19692;52.998;9.116;2023-04-03T05:08:04;0.00;99.90
33328;DHT22;19692;52.998;9.116;2023-04-03T05:10:30;0.00;99.90
33328;DHT22;19692;52.998;9.116;2023-04-03T05:12:57;-0.10;99.90
33328;DHT22;19692;52.998;9.116;2023-04-03T05:15:23;-0.10;99.90
33328;DHT22;19692;52.998;9.116;2023-04-03T05:17:49;-0.10;99.90
33328;DHT22;19692;52.998;9.116;2023-04-03T05:20:16;-0.10;99.90
33328;DHT22;19692;52.998;9.116;2023-04-03T05:22:42;-0.10;99.90
33328;DHT22;19692;52.998;9.116;2023-04-03T05:25:08;-0.10;99.90
33328;DHT22;19692;52.998;9.116;2023-04-03T05:27:34;-0.10;99.90
33328;DHT22;19692;52.998;9.116;2023-04-03T05:30:00;0.00;99.90
33328;DHT22;19692;52.998;9.116;2023-04-03T05:32:26;0.00;99.90
33328;DHT22;19692;52.998;9.116;2023-04-03T05:34:53;0.00;99.90
33328;DHT22;19692;52.998;9.116;2023-04-03T05:37:19;0.10;99.90
33328;DHT22;19692;52.998;9.116;2023-04-03T05:39:45;0.10;99.90
33328;DHT22;19692;52.998;9.116;2023-04-03T05:42:11;0.20;99.90
33328;DHT22;19692;52.998;9.116;2023-04-03T05:44:38;0.20;99.90
33328;DHT22;19692;52.998;9.116;2023-04-03T05:47:04;0.30;99.90
33328;DHT22;19692;52.998;9.116;2023-04-03T05:49:30;0.30;99.90
33328;DHT22;19692;52.998;9.116;2023-04-03T05:51:56;0.30;99.90
33328;DHT22;19692;52.998;9.116;2023-04-03T05:54:24;0.40;99.90
33328;DHT22;19692;52.998;9.116;2023-04-03T05:56:51;0.40;99.90
33328;DHT22;19692;52.998;9.116;2023-04-03T05:59:19;0.50;99.90
33328;DHT22;19692;52.998;9.116;2023-04-03T06:01:46;0.60;99.90
33328;DHT22;19692;52.998;9.116;2023-04-03T06:04:13;0.60;99.90
33328;DHT22;19692;52.998;9.116;2023-04-03T06:06:54;0.70;99.90
33328;DHT22;19692;52.998;9.116;2023-04-03T06:09:24;0.70;99.90
33328;DHT22;19692;52.998;9.116;2023-04-03T06:11:52;0.80;99.90
33328;DHT22;19692;52.998;9.116;2023-04-03T06:14:19;0.80;99.90
33328;DHT22;19692;52.998;9.116;2023-04-03T06:16:45;0.90;99.90
33328;DHT22;19692;52.998;9.116;2023-04-03T06:19:11;0.90;99.90
33328;DHT22;19692;52.998;9.116;2023-04-03T06:21:38;1.00;99.90
33328;DHT22;19692;52.998;9.116;2023-04-03T06:24:04;1.20;99.90
33328;DHT22;19692;52.998;9.116;2023-04-03T06:26:31;1.20;99.90
33328;DHT22;19692;52.998;9.116;2023-04-03T06:28:57;1.30;99.90
33328;DHT22;19692;52.998;9.116;2023-04-03T06:31:23;1.40;99.90
33328;DHT22;19692;52.998;9.116;2023-04-03T06:33:49;1.50;99.90
33328;DHT22;19692;52.998;9.116;2023-04-03T06:36:15;1.60;99.90
33328;DHT22;19692;52.998;9.116;2023-04-03T06:38:45;1.70;99.90
33328;DHT22;19692;52.998;9.116;2023-04-03T06:41:11;1.70;99.90
33328;DHT22;19692;52.998;9.116;2023-04-03T06:43:37;1.90;99.90
33328;DHT22;19692;52.998;9.116;2023-04-03T06:46:03;2.00;99.90
33328;DHT22;19692;52.998;9.116;2023-04-03T06:48:29;2.10;99.90
33328;DHT22;19692;52.998;9.116;2023-04-03T06:50:55;2.20;99.90
33328;DHT22;19692;52.998;9.116;2023-04-03T06:53:21;2.20;99.90
33328;DHT22;19692;52.998;9.116;2023-04-03T06:55:47;2.40;99.90
33328;DHT22;19692;52.998;9.116;2023-04-03T06:58:13;2.50;99.90
33328;DHT22;19692;52.998;9.116;2023-04-03T07:00:41;2.60;99.90
33328;DHT22;19692;52.998;9.116;2023-04-03T07:03:06;2.70;99.90
33328;DHT22;19692;52.998;9.116;2023-04-03T07:05:33;2.80;99.90
33328;DHT22;19692;52.998;9.116;2023-04-03T07:07:58;3.00;99.90
33328;DHT22;19692;52.998;9.116;2023-04-03T07:10:24;3.10;99.90
33328;DHT22;19692;52.998;9.116;2023-04-03T07:12:50;3.20;99.90
33328;DHT22;19692;52.998;9.116;2023-04-03T07:15:16;3.40;99.90
33328;DHT22;19692;52.998;9.116;2023-04-03T07:17:42;3.60;99.90
33328;DHT22;19692;52.998;9.116;2023-04-03T07:20:08;3.70;99.90
33328;DHT22;19692;52.998;9.116;2023-04-03T07:22:34;3.80;99.90
33328;DHT22;19692;52.998;9.116;2023-04-03T07:25:00;3.90;99.90
33328;DHT22;19692;52.998;9.116;2023-04-03T07:27:26;4.10;99.90
33328;DHT22;19692;52.998;9.116;2023-04-03T07:29:52;4.30;99.90
33328;DHT22;19692;52.998;9.116;2023-04-03T07:32:17;4.40;99.90
33328;DHT22;19692;52.998;9.116;2023-04-03T07:34:44;4.50;99.90
33328;DHT22;19692;52.998;9.116;2023-04-03T07:37:10;4.50;99.90
33328;DHT22;19692;52.998;9.116;2023-04-03T07:39:36;4.60;99.90
33328;DHT22;19692;52.998;9.116;2023-04-03T07:42:02;4.70;99.90
33328;DHT22;19692;52.998;9.116;2023-04-03T07:44:28;4.80;99.90
33328;DHT22;19692;52.998;9.116;2023-04-03T07:46:54;4.90;99.90
33328;DHT22;19692;52.998;9.116;2023-04-03T07:49:22;5.00;99.90
33328;DHT22;19692;52.998;9.116;2023-04-03T07:51:49;5.10;99.90
33328;DHT22;19692;52.998;9.116;2023-04-03T07:54:15;5.20;99.90
33328;DHT22;19692;52.998;9.116;2023-04-03T07:56:41;5.30;99.90
33328;DHT22;19692;52.998;9.116;2023-04-03T07:59:08;5.50;99.90
33328;DHT22;19692;52.998;9.116;2023-04-03T08:01:35;5.70;99.90
33328;DHT22;19692;52.998;9.116;2023-04-03T08:04:01;5.80;99.90
33328;DHT22;19692;52.998;9.116;2023-04-03T08:06:27;5.80;99.90
33328;DHT22;19692;52.998;9.116;2023-04-03T08:08:55;6.00;99.90
33328;DHT22;19692;52.998;9.116;2023-04-03T08:11:21;6.00;99.90
33328;DHT22;19692;52.998;9.116;2023-04-03T08:13:49;6.00;99.90
33328;DHT22;19692;52.998;9.116;2023-04-03T08:16:20;6.20;99.90
33328;DHT22;19692;52.998;9.116;2023-04-03T08:18:47;6.40;99.90
33328;DHT22;19692;52.998;9.116;2023-04-03T08:21:13;6.40;99.90
33328;DHT22;19692;52.998;9.116;2023-04-03T08:23:40;6.50;99.90
33328;DHT22;19692;52.998;9.116;2023-04-03T08:26:13;6.60;99.90
33328;DHT22;19692;52.998;9.116;2023-04-03T08:28:40;6.80;99.90
33328;DHT22;19692;52.998;9.116;2023-04-03T08:31:09;6.90;99.90
33328;DHT22;19692;52.998;9.116;2023-04-03T08:33:36;7.10;99.90
33328;DHT22;19692;52.998;9.116;2023-04-03T08:36:04;7.20;99.90
33328;DHT22;19692;52.998;9.116;2023-04-03T08:38:33;7.50;99.90
33328;DHT22;19692;52.998;9.116;2023-04-03T08:52:53;7.90;99.90
33328;DHT22;19692;52.998;9.116;2023-04-03T08:55:26;8.00;99.90
33328;DHT22;19692;52.998;9.116;2023-04-03T08:58:05;8.00;99.90
33328;DHT22;19692;52.998;9.116;2023-04-03T09:00:45;8.20;99.90
33328;DHT22;19692;52.998;9.116;2023-04-03T09:03:15;8.20;99.90
33328;DHT22;19692;52.998;9.116;2023-04-03T09:05:57;8.30;99.90
33328;DHT22;19692;52.998;9.116;2023-04-03T09:08:29;8.30;99.90
33328;DHT22;19692;52.998;9.116;2023-04-03T09:11:13;8.50;99.90
33328;DHT22;19692;52.998;9.116;2023-04-03T09:14:12;8.70;99.90
33328;DHT22;19692;52.998;9.116;2023-04-03T09:16:49;8.80;99.90
33328;DHT22;19692;52.998;9.116;2023-04-03T09:22:27;8.90;99.90
33328;DHT22;19692;52.998;9.116;2023-04-03T09:27:55;9.10;99.90
33328;DHT22;19692;52.998;9.116;2023-04-03T09:30:24;9.20;99.90
33328;DHT22;19692;52.998;9.116;2023-04-03T09:32:52;9.50;99.90
33328;DHT22;19692;52.998;9.116;2023-04-03T09:37:52;10.20;98.60
33328;DHT22;19692;52.998;9.116;2023-04-03T09:42:52;10.50;97.30
33328;DHT22;19692;52.998;9.116;2023-04-03T09:45:23;10.30;96.70
33328;DHT22;19692;52.998;9.116;2023-04-03T09:50:56;10.50;96.10
33328;DHT22;19692;52.998;9.116;2023-04-03T09:53:38;10.00;97.20
33328;DHT22;19692;52.998;9.116;2023-04-03T09:58:49;10.00;98.00
33328;DHT22;19692;52.998;9.116;2023-04-03T10:04:13;10.50;97.20
33328;DHT22;19692;52.998;9.116;2023-04-03T10:06:54;10.80;95.10
33328;DHT22;19692;52.998;9.116;2023-04-03T10:12:06;11.30;94.40
33328;DHT22;19692;52.998;9.116;2023-04-03T10:14:54;11.20;91.70
33328;DHT22;19692;52.998;9.116;2023-04-03T10:18:10;11.10;91.50
33328;DHT22;19692;52.998;9.116;2023-04-03T10:20:40;11.20;91.70
33328;DHT22;19692;52.998;9.116;2023-04-03T10:23:18;11.30;91.90
33328;DHT22;19692;52.998;9.116;2023-04-03T10:28:44;11.80;86.80
33328;DHT22;19692;52.998;9.116;2023-04-03T10:32:10;11.70;85.50
33328;DHT22;19692;52.998;9.116;2023-04-03T10:34:45;11.80;84.60
33328;DHT22;19692;52.998;9.116;2023-04-03T10:39:57;12.10;80.00
33328;DHT22;19692;52.998;9.116;2023-04-03T10:54:29;12.00;80.70
33328;DHT22;19692;52.998;9.116;2023-04-03T10:57:08;12.20;83.50
33328;DHT22;19692;52.998;9.116;2023-04-03T10:59:50;12.40;83.20
33328;DHT22;19692;52.998;9.116;2023-04-03T11:02:38;12.80;81.10
33328;DHT22;19692;52.998;9.116;2023-04-03T11:08:16;12.90;81.00
33328;DHT22;19692;52.998;9.116;2023-04-03T11:10:55;13.00;85.00
33328;DHT22;19692;52.998;9.116;2023-04-03T11:13:34;12.80;80.60
33328;DHT22;19692;52.998;9.116;2023-04-03T11:16:28;12.30;81.40
33328;DHT22;19692;52.998;9.116;2023-04-03T11:19:03;11.40;82.60
33328;DHT22;19692;52.998;9.116;2023-04-03T11:21:57;11.40;87.80
33328;DHT22;19692;52.998;9.116;2023-04-03T11:24:29;11.70;87.20
33328;DHT22;19692;52.998;9.116;2023-04-03T11:26:58;12.00;84.50
33328;DHT22;19692;52.998;9.116;2023-04-03T11:29:35;11.90;82.50
33328;DHT22;19692;52.998;9.116;2023-04-03T11:32:28;11.50;82.60
33328;DHT22;19692;52.998;9.116;2023-04-03T11:35:06;11.20;85.70
33328;DHT22;19692;52.998;9.116;2023-04-03T11:37:38;11.60;87.10
33328;DHT22;19692;52.998;9.116;2023-04-03T11:40:24;11.80;83.60
33328;DHT22;19692;52.998;9.116;2023-04-03T11:43:39;12.40;82.80
33328;DHT22;19692;52.998;9.116;2023-04-03T11:46:06;12.80;80.80
33328;DHT22;19692;52.998;9.116;2023-04-03T11:53:43;13.80;80.40
33328;DHT22;19692;52.998;9.116;2023-04-03T12:01:50;13.80;73.00
33328;DHT22;19692;52.998;9.116;2023-04-03T12:04:18;13.90;74.10
33328;DHT22;19692;52.998;9.116;2023-04-03T12:11:49;14.30;73.50
33328;DHT22;19692;52.998;9.116;2023-04-03T12:14:16;14.60;71.50
33328;DHT22;19692;52.998;9.116;2023-04-03T12:16:44;15.00;70.10
33328;DHT22;19692;52.998;9.116;2023-04-03T12:24:28;15.00;70.10
33328;DHT22;19692;52.998;9.116;2023-04-03T12:29:34;13.10;74.80
33328;DHT22;19692;52.998;9.116;2023-04-03T12:38:41;11.00;83.40
33328;DHT22;19692;52.998;9.116;2023-04-03T12:41:27;10.40;84.50
33328;DHT22;19692;52.998;9.116;2023-04-03T12:46:37;10.20;86.40
33328;DHT22;19692;52.998;9.116;2023-04-03T12:49:20;10.40;87.60
33328;DHT22;19692;52.998;9.116;2023-04-03T12:58:22;12.30;83.80
33328;DHT22;19692;52.998;9.116;2023-04-03T13:01:10;13.30;78.60
33328;DHT22;19692;52.998;9.116;2023-04-03T13:03:40;13.70;75.70
33328;DHT22;19692;52.998;9.116;2023-04-03T13:06:18;13.90;74.50
33328;DHT22;19692;52.998;9.116;2023-04-03T13:08:50;14.00;73.60
33328;DHT22;19692;52.998;9.116;2023-04-03T13:11:16;14.30;72.40
33328;DHT22;19692;52.998;9.116;2023-04-03T13:13:58;14.00;72.80
33328;DHT22;19692;52.998;9.116;2023-04-03T13:16:26;13.80;71.30
33328;DHT22;19692;52.998;9.116;2023-04-03T13:18:55;13.80;70.20
33328;DHT22;19692;52.998;9.116;2023-04-03T13:21:29;13.80;73.30
33328;DHT22;19692;52.998;9.116;2023-04-03T13:24:00;13.10;69.70
33328;DHT22;19692;52.998;9.116;2023-04-03T13:26:30;12.50;70.20
33328;DHT22;19692;52.998;9.116;2023-04-03T13:29:01;12.10;71.40
33328;DHT22;19692;52.998;9.116;2023-04-03T13:31:35;12.40;75.40
33328;DHT22;19692;52.998;9.116;2023-04-03T13:34:13;12.90;78.50
33328;DHT22;19692;52.998;9.116;2023-04-03T13:36:59;13.40;72.00
33328;DHT22;19692;52.998;9.116;2023-04-03T13:39:29;13.10;72.10
33328;DHT22;19692;52.998;9.116;2023-04-03T13:42:01;12.70;71.00
33328;DHT22;19692;52.998;9.116;2023-04-03T13:44:40;12.70;70.90
33328;DHT22;19692;52.998;9.116;2023-04-03T13:47:17;13.00;69.90
33328;DHT22;19692;52.998;9.116;2023-04-03T13:52:53;12.20;78.70
33328;DHT22;19692;52.998;9.116;2023-04-03T13:55:35;11.70;77.10
33328;DHT22;19692;52.998;9.116;2023-04-03T14:05:49;10.70;81.80
33328;DHT22;19692;52.998;9.116;2023-04-03T14:08:15;10.60;82.60
33328;DHT22;19692;52.998;9.116;2023-04-03T14:10:41;10.90;85.20
33328;DHT22;19692;52.998;9.116;2023-04-03T14:13:14;11.50;86.10
33328;DHT22;19692;52.998;9.116;2023-04-03T14:15:41;12.30;81.90
33328;DHT22;19692;52.998;9.116;2023-04-03T14:18:12;12.30;76.80
33328;DHT22;19692;52.998;9.116;2023-04-03T14:20:39;12.50;78.30
33328;DHT22;19692;52.998;9.116;2023-04-03T14:23:04;12.50;74.50
33328;DHT22;19692;52.998;9.116;2023-04-03T14:25:30;12.50;75.90
33328;DHT22;19692;52.998;9.116;2023-04-03T14:27:56;12.80;75.90
33328;DHT22;19692;52.998;9.116;2023-04-03T14:30:29;13.10;72.10
33328;DHT22;19692;52.998;9.116;2023-04-03T14:33:05;13.40;70.10
33328;DHT22;19692;52.998;9.116;2023-04-03T14:35:31;13.80;68.60
33328;DHT22;19692;52.998;9.116;2023-04-03T14:37:57;13.80;68.40
33328;DHT22;19692;52.998;9.116;2023-04-03T14:40:27;13.90;66.00
33328;DHT22;19692;52.998;9.116;2023-04-03T14:42:53;14.20;68.00
33328;DHT22;19692;52.998;9.116;2023-04-03T14:45:22;14.40;68.90
33328;DHT22;19692;52.998;9.116;2023-04-03T14:47:53;14.30;68.60
33328;DHT22;19692;52.998;9.116;2023-04-03T14:50:24;13.80;68.20
33328;DHT22;19692;52.998;9.116;2023-04-03T14:52:54;13.00;69.50
33328;DHT22;19692;52.998;9.116;2023-04-03T14:55:26;12.40;70.00
33328;DHT22;19692;52.998;9.116;2023-04-03T14:57:53;11.80;73.10
33328;DHT22;19692;52.998;9.116;2023-04-03T15:00:21;11.60;74.70
33328;DHT22;19692;52.998;9.116;2023-04-03T15:02:48;11.80;75.70
33328;DHT22;19692;52.998;9.116;2023-04-03T15:05:14;12.00;74.80
33328;DHT22;19692;52.998;9.116;2023-04-03T15:07:48;12.10;73.20
33328;DHT22;19692;52.998;9.116;2023-04-03T15:10:28;12.40;74.20
33328;DHT22;19692;52.998;9.116;2023-04-03T15:12:55;12.80;70.90
33328;DHT22;19692;52.998;9.116;2023-04-03T15:15:22;13.20;69.20
33328;DHT22;19692;52.998;9.116;2023-04-03T15:17:54;12.80;69.90
33328;DHT22;19692;52.998;9.116;2023-04-03T15:20:23;12.40;73.50
33328;DHT22;19692;52.998;9.116;2023-04-03T15:22:50;12.10;76.20
33328;DHT22;19692;52.998;9.116;2023-04-03T15:25:16;11.70;77.30
33328;DHT22;19692;52.998;9.116;2023-04-03T15:27:43;11.40;79.00
33328;DHT22;19692;52.998;9.116;2023-04-03T15:30:18;11.10;77.90
33328;DHT22;19692;52.998;9.116;2023-04-03T15:32:45;11.10;80.50
33328;DHT22;19692;52.998;9.116;2023-04-03T15:35:11;11.30;78.20
33328;DHT22;19692;52.998;9.116;2023-04-03T15:37:37;11.40;73.80
33328;DHT22;19692;52.998;9.116;2023-04-03T15:40:05;11.50;75.40
33328;DHT22;19692;52.998;9.116;2023-04-03T15:42:32;11.80;72.80
33328;DHT22;19692;52.998;9.116;2023-04-03T15:44:58;12.00;73.10
33328;DHT22;19692;52.998;9.116;2023-04-03T15:47:25;12.10;72.20
33328;DHT22;19692;52.998;9.116;2023-04-03T15:49:52;12.20;73.20
33328;DHT22;19692;52.998;9.116;2023-04-03T15:52:19;12.10;74.20
33328;DHT22;19692;52.998;9.116;2023-04-03T15:54:44;12.00;75.10
33328;DHT22;19692;52.998;9.116;2023-04-03T15:57:11;12.00;75.30
33328;DHT22;19692;52.998;9.116;2023-04-03T15:59:37;12.00;74.90
33328;DHT22;19692;52.998;9.116;2023-04-03T16:02:05;11.70;74.30
33328;DHT22;19692;52.998;9.116;2023-04-03T16:04:32;11.10;78.80
33328;DHT22;19692;52.998;9.116;2023-04-03T16:07:01;10.80;81.30
33328;DHT22;19692;52.998;9.116;2023-04-03T16:09:28;10.50;81.50
33328;DHT22;19692;52.998;9.116;2023-04-03T16:11:54;10.50;79.50
33328;DHT22;19692;52.998;9.116;2023-04-03T16:14:21;10.50;81.10
33328;DHT22;19692;52.998;9.116;2023-04-03T16:16:47;10.70;80.00
33328;DHT22;19692;52.998;9.116;2023-04-03T16:19:13;11.00;78.80
33328;DHT22;19692;52.998;9.116;2023-04-03T16:21:38;11.30;77.90
33328;DHT22;19692;52.998;9.116;2023-04-03T16:24:04;11.40;77.70
33328;DHT22;19692;52.998;9.116;2023-04-03T16:26:30;11.70;77.70
33328;DHT22;19692;52.998;9.116;2023-04-03T16:28:56;11.80;77.10
33328;DHT22;19692;52.998;9.116;2023-04-03T16:31:23;11.70;76.50
33328;DHT22;19692;52.998;9.116;2023-04-03T16:33:50;11.60;76.60
33328;DHT22;19692;52.998;9.116;2023-04-03T16:36:16;11.70;78.40
33328;DHT22;19692;52.998;9.116;2023-04-03T16:38:42;11.80;77.70
33328;DHT22;19692;52.998;9.116;2023-04-03T16:41:08;11.90;75.90
33328;DHT22;19692;52.998;9.116;2023-04-03T16:43:34;11.70;77.20
33328;DHT22;19692;52.998;9.116;2023-04-03T16:46:01;11.50;77.30
33328;DHT22;19692;52.998;9.116;2023-04-03T16:48:28;11.40;77.60
33328;DHT22;19692;52.998;9.116;2023-04-03T16:50:55;11.20;77.70
33328;DHT22;19692;52.998;9.116;2023-04-03T16:53:22;11.00;78.40
33328;DHT22;19692;52.998;9.116;2023-04-03T16:55:49;10.90;79.60
33328;DHT22;19692;52.998;9.116;2023-04-03T16:58:15;10.90;80.60
33328;DHT22;19692;52.998;9.116;2023-04-03T17:00:41;10.80;81.10
33328;DHT22;19692;52.998;9.116;2023-04-03T17:03:07;10.80;81.70
33328;DHT22;19692;52.998;9.116;2023-04-03T17:05:33;10.80;83.30
33328;DHT22;19692;52.998;9.116;2023-04-03T17:07:59;10.90;82.50
33328;DHT22;19692;52.998;9.116;2023-04-03T17:10:26;11.00;82.90
33328;DHT22;19692;52.998;9.116;2023-04-03T17:12:52;10.90;83.10
33328;DHT22;19692;52.998;9.116;2023-04-03T17:15:18;10.70;83.40
33328;DHT22;19692;52.998;9.116;2023-04-03T17:17:46;10.60;83.80
33328;DHT22;19692;52.998;9.116;2023-04-03T17:20:14;10.20;84.40
33328;DHT22;19692;52.998;9.116;2023-04-03T17:22:40;10.00;85.60
33328;DHT22;19692;52.998;9.116;2023-04-03T17:25:06;9.80;86.30
33328;DHT22;19692;52.998;9.116;2023-04-03T17:27:32;9.60;86.90
33328;DHT22;19692;52.998;9.116;2023-04-03T17:29:58;9.40;87.60
33328;DHT22;19692;52.998;9.116;2023-04-03T17:32:24;9.20;88.10
33328;DHT22;19692;52.998;9.116;2023-04-03T17:34:50;9.10;88.50
33328;DHT22;19692;52.998;9.116;2023-04-03T17:37:16;8.90;89.80
33328;DHT22;19692;52.998;9.116;2023-04-03T17:39:43;8.80;90.50
33328;DHT22;19692;52.998;9.116;2023-04-03T17:42:11;8.60;91.50
33328;DHT22;19692;52.998;9.116;2023-04-03T17:44:37;8.50;92.30
33328;DHT22;19692;52.998;9.116;2023-04-03T17:47:02;8.40;93.00
33328;DHT22;19692;52.998;9.116;2023-04-03T17:49:28;8.30;93.00
33328;DHT22;19692;52.998;9.116;2023-04-03T17:51:54;8.10;93.70
33328;DHT22;19692;52.998;9.116;2023-04-03T17:54:20;8.00;94.10